Nearby METAR Reports

 

LJLJ - Ljubljana/Brnik, Slovenia
Distance from station: W 41km
Updated: 20/03/2019 14:00
Few Clouds
Few Clouds
 Wind from E
Wind: E 22 km/h
Temperature: 10°C
Wind Chill: 7°C
Dew Point: -5°C
Humidity: 35%
Barometer: 1030 hPa
Clouds: Few Clouds
Visibility: 10 km
Cloud details: Few Clouds 1829 m
2019/03/20 13:00 LJLJ 201300Z 10012KT 070V130 9999 FEW060 10/M05 Q1030 NOSIG
LJMB - Maribor, Slovenia
Distance from station: NE 63km
Updated: 20/03/2019 14:00
Clear
Clear
 Wind from NNE
Wind: NNE 17 km/h
Temperature: 10°C
Wind Chill: 8°C
Dew Point: -5°C
Humidity: 35%
Barometer: 1032 hPa
Summary: Clear
Visibility: greater than 10 km
2019/03/20 13:00 LJMB 201300Z 03009KT 350V070 CAVOK 10/M05 Q1032
 
LJPZ - Portoroz, Slovenia
Distance from station: SW 130km
Updated: 20/03/2019 14:00
Few Clouds
Few Clouds
 Wind from ENE
Wind: ENE 26 km/h
Temperature: 14°C
Dew Point: -6°C
Humidity: 25%
Barometer: 1029 hPa
Clouds: Few Clouds
Visibility: 10 km
Cloud details: Few Clouds 1524 m
2019/03/20 13:00 LJPZ 201300Z 06014KT 030V100 9999 FEW050 14/M06 Q1029
LJCE - Cerklje, Slovenia
Distance from station: ESE 49km
Updated: 20/03/2019 14:00
Clear
Clear
 Wind from ENE
Wind: ENE 20 km/h
Temperature: 11°C
Dew Point: -4°C
Humidity: 35%
Barometer: 1032 hPa
Summary: Clear
Visibility: greater than 10 km
2019/03/20 13:00 LJCE 201300Z 07011KT 030V100 CAVOK 11/M04 Q1032 RMK BLU
 
LDZA - Zagreb/Pleso, Croatia
Distance from station: ESE 96km
Updated: 20/03/2019 14:00
Clear
Clear
 Wind from ENE
Wind: ENE 19 km/h
Temperature: 11°C
Dew Point: -3°C
Humidity: 38%
Barometer: 1031 hPa
Summary: Clear
Visibility: greater than 10 km
2019/03/20 13:00 LDZA 201300Z 06010KT 010V110 CAVOK 11/M03 Q1031 NOSIG
LDRI - Rijeka/Omisalj, Croatia
Distance from station: SSW 109km
Updated: 20/03/2019 14:00
Few Clouds
Few Clouds
 Wind from NE
Wind: NE 37 km/h, Gust: 63 km/h
Temperature: 11°C
Dew Point: -5°C
Humidity: 32%
Barometer: 1028 hPa
Clouds: Few Clouds
Visibility: 10 km
Cloud details: Few Clouds 1524 m
2019/03/20 13:00 LDRI 201300Z 05020G34KT 010V070 9999 FEW050 11/M05 Q1028
 
LDPL - Pula, Croatia
Distance from station: SSW 164km
Updated: 20/03/2019 14:00
Clear
Clear
 Wind from E
Wind: E 28 km/h
Temperature: 12°C
Dew Point: -2°C
Humidity: 38%
Barometer: 1028 hPa
Summary: Clear
Visibility: greater than 10 km
2019/03/20 13:00 LDPL 201300Z 09015KT 050V120 CAVOK 12/M02 Q1028 NOSIG
LOWK - Klagenfurt(Civ/M, Austria
Distance from station: NW 76km
Updated: 20/03/2019 13:50
Few Clouds
Few Clouds
 Wind from SE
Wind: SE 11 km/h
Temperature: 8°C
Wind Chill: 6°C
Dew Point: -5°C
Humidity: 40%
Barometer: 1031 hPa
Clouds: Few Clouds
Visibility: 10 km
Cloud details: Few Clouds 1829 m
2019/03/20 12:50 LOWK 201250Z 13006KT 050V190 9999 FEW060 08/M05 Q1031 NOSIG
 
LOWG - Graz (mil/Civ), Austria
Distance from station: NNE 100km
Updated: 20/03/2019 13:50
Partly cloudy
Partly cloudy
 Wind from E
Wind: E 9 km/h
Temperature: 10°C
Wind Chill: 9°C
Dew Point: -5°C
Humidity: 35%
Barometer: 1032 hPa
Clouds: Partly cloudy
Visibility: 10 km
Cloud details: Partly cloudy 2134 m
2019/03/20 12:50 LOWG 201250Z 08005KT 020V120 9999 SCT070 10/M05 Q1032 R17/19//95 NOSIG
LOAN - Wr.neustadt East, Austria
Distance from station: NNE 212km
Updated: 20/03/2019 14:00
Mostly cloudy
Mostly cloudy
 Wind from N
Wind: N 19 km/h
Clouds: Mostly cloudy
Cloud details: Partly cloudy 1524 m
Mostly cloudy 3048 m
2019/03/20 13:00 LOAN 201300Z 35010KT 40KM SCT050SC BKN100AC
 
LIPQ - Ronchi Legionari, Italy
Distance from station: SW 35km
Updated: 20/03/2019 13:50
Clear
Clear
 Wind from ENE
Wind: ENE 20 km/h
Temperature: 13°C
Dew Point: -4°C
Humidity: 31%
Barometer: 1030 hPa
Summary: Clear
Visibility: greater than 10 km
2019/03/20 12:50 LIPQ 201250Z 06011KT 030V100 CAVOK 13/M04 Q1030
LIVT - Trieste, Italy
Distance from station: WSW 109km
Updated: 20/03/2019 13:55
Clear
Clear
 Wind from E
Wind: E 7 km/h, Gust: 26 km/h
Temperature: 13°C
Dew Point: -4°C
Humidity: 31%
Barometer: 1029 hPa
Summary: Clear
Visibility: greater than 10 km
2019/03/20 12:55 LIVT 201255Z 08004G14KT CAVOK 13/M04 Q1029 RMK SKC QUK 2 QUL 1 NE VIS MAR 20 KM VIS MIN 9999
 
LIVO - Tarvisio, Italy
Distance from station: NNW 49km
Updated: 20/03/2019 13:55
Few Clouds
Few Clouds
 Wind from SE
Wind: SE 7 km/h
Temperature: 4°C
Wind Chill: 2°C
Dew Point: -4°C
Humidity: 56%
Barometer: 1029 hPa
Clouds: Few Clouds
Visibility: 10 km
Cloud details: Few Clouds 975 m
2019/03/20 12:55 LIVO 201255Z 14004KT 9999 FEW032 04/M04 Q1029 RMK FEW VIS MIN 9999
LIPZ - Venezia/Tessera, Italy
Distance from station: WSW 217km
Updated: 20/03/2019 13:50
Clear
Clear
 Wind from E
Wind: E 17 km/h
Temperature: 13°C
Dew Point: 0°C
Humidity: 41%
Barometer: 1030 hPa
Summary: Clear
Visibility: greater than 10 km
2019/03/20 12:50 LIPZ 201250Z 09009KT 060V120 CAVOK 13/M00 Q1030 NOSIG
 
LHSM - Balaton, Hungary
Distance from station: ENE 177km
Updated: 20/03/2019 13:45
Clear
Clear
 Wind from NNW
Wind: NNW 15 km/h
Temperature: 11°C
Dew Point: -5°C
Humidity: 32%
Barometer: 1033 hPa
Summary: Clear
Visibility: greater than 10 km
2019/03/20 12:45 LHSM 201245Z 34008KT CAVOK 11/M05 Q1033 NOSIG